sensor_id;sensor_type;location;lat;lon;timestamp;temperature;humidity
6146;DHT22;3104;50.348;7.620;2023-04-03T00:05:34;4.70;99.90
6146;DHT22;3104;50.348;7.620;2023-04-03T00:08:00;4.70;99.90
6146;DHT22;3104;50.348;7.620;2023-04-03T00:10:28;4.80;99.90
6146;DHT22;3104;50.348;7.620;2023-04-03T00:12:54;4.80;99.90
6146;DHT22;3104;50.348;7.620;2023-04-03T00:15:19;4.80;99.90
6146;DHT22;3104;50.348;7.620;2023-04-03T00:17:45;4.70;99.90
6146;DHT22;3104;50.348;7.620;2023-04-03T00:20:11;4.80;99.90
6146;DHT22;3104;50.348;7.620;2023-04-03T00:22:36;4.80;99.90
6146;DHT22;3104;50.348;7.620;2023-04-03T00:25:03;4.80;99.90
6146;DHT22;3104;50.348;7.620;2023-04-03T00:27:28;4.70;99.90
6146;DHT22;3104;50.348;7.620;2023-04-03T00:29:54;4.80;99.90
6146;DHT22;3104;50.348;7.620;2023-04-03T00:32:19;4.70;99.90
6146;DHT22;3104;50.348;7.620;2023-04-03T00:34:45;4.70;99.90
6146;DHT22;3104;50.348;7.620;2023-04-03T00:37:10;4.70;99.90
6146;DHT22;3104;50.348;7.620;2023-04-03T00:39:36;4.70;99.90
6146;DHT22;3104;50.348;7.620;2023-04-03T00:42:01;4.80;99.90
6146;DHT22;3104;50.348;7.620;2023-04-03T00:46:59;4.80;99.90
6146;DHT22;3104;50.348;7.620;2023-04-03T00:49:26;4.80;99.90
6146;DHT22;3104;50.348;7.620;2023-04-03T00:51:52;4.70;99.90
6146;DHT22;3104;50.348;7.620;2023-04-03T00:54:18;4.80;99.90
6146;DHT22;3104;50.348;7.620;2023-04-03T00:56:44;5.00;99.90
6146;DHT22;3104;50.348;7.620;2023-04-03T00:59:16;5.10;99.90
6146;DHT22;3104;50.348;7.620;2023-04-03T01:01:42;5.00;99.90
6146;DHT22;3104;50.348;7.620;2023-04-03T01:04:35;4.90;99.90
6146;DHT22;3104;50.348;7.620;2023-04-03T01:07:05;5.00;99.90
6146;DHT22;3104;50.348;7.620;2023-04-03T01:09:33;4.90;99.90
6146;DHT22;3104;50.348;7.620;2023-04-03T01:12:18;5.10;99.90
6146;DHT22;3104;50.348;7.620;2023-04-03T01:18:09;4.80;99.90
6146;DHT22;3104;50.348;7.620;2023-04-03T01:20:59;4.80;99.90
6146;DHT22;3104;50.348;7.620;2023-04-03T01:23:49;4.70;99.90
6146;DHT22;3104;50.348;7.620;2023-04-03T01:26:16;4.70;99.90
6146;DHT22;3104;50.348;7.620;2023-04-03T01:28:41;4.80;99.90
6146;DHT22;3104;50.348;7.620;2023-04-03T01:31:24;4.90;99.90
6146;DHT22;3104;50.348;7.620;2023-04-03T01:33:51;4.90;99.90
6146;DHT22;3104;50.348;7.620;2023-04-03T01:36:23;4.90;99.90
6146;DHT22;3104;50.348;7.620;2023-04-03T01:38:50;5.40;99.90
6146;DHT22;3104;50.348;7.620;2023-04-03T01:41:16;5.60;99.90
6146;DHT22;3104;50.348;7.620;2023-04-03T01:43:41;5.30;99.90
6146;DHT22;3104;50.348;7.620;2023-04-03T01:46:07;5.10;99.90
6146;DHT22;3104;50.348;7.620;2023-04-03T01:48:33;5.00;99.90
6146;DHT22;3104;50.348;7.620;2023-04-03T01:50:59;4.80;99.90
6146;DHT22;3104;50.348;7.620;2023-04-03T01:53:24;4.80;99.90
6146;DHT22;3104;50.348;7.620;2023-04-03T01:55:50;4.80;99.90
6146;DHT22;3104;50.348;7.620;2023-04-03T01:58:16;4.70;99.90
6146;DHT22;3104;50.348;7.620;2023-04-03T02:00:41;4.60;99.90
6146;DHT22;3104;50.348;7.620;2023-04-03T02:03:07;4.60;99.90
6146;DHT22;3104;50.348;7.620;2023-04-03T02:05:32;4.70;99.90
6146;DHT22;3104;50.348;7.620;2023-04-03T02:07:58;4.70;99.90
6146;DHT22;3104;50.348;7.620;2023-04-03T02:10:24;4.80;99.90
6146;DHT22;3104;50.348;7.620;2023-04-03T02:12:49;4.70;99.90
6146;DHT22;3104;50.348;7.620;2023-04-03T02:15:16;4.70;99.90
6146;DHT22;3104;50.348;7.620;2023-04-03T02:17:41;4.70;99.90
6146;DHT22;3104;50.348;7.620;2023-04-03T02:20:07;4.90;99.90
6146;DHT22;3104;50.348;7.620;2023-04-03T02:22:33;4.80;99.90
6146;DHT22;3104;50.348;7.620;2023-04-03T02:24:59;4.80;99.90
6146;DHT22;3104;50.348;7.620;2023-04-03T02:27:24;4.80;99.90
6146;DHT22;3104;50.348;7.620;2023-04-03T02:29:50;4.90;99.90
6146;DHT22;3104;50.348;7.620;2023-04-03T02:32:15;4.80;99.90
6146;DHT22;3104;50.348;7.620;2023-04-03T02:34:41;4.70;99.90
6146;DHT22;3104;50.348;7.620;2023-04-03T02:37:07;4.60;99.90
6146;DHT22;3104;50.348;7.620;2023-04-03T02:39:32;4.60;99.90
6146;DHT22;3104;50.348;7.620;2023-04-03T02:41:58;4.60;99.90
6146;DHT22;3104;50.348;7.620;2023-04-03T02:44:24;4.80;99.90
6146;DHT22;3104;50.348;7.620;2023-04-03T02:46:50;5.00;99.90
6146;DHT22;3104;50.348;7.620;2023-04-03T02:49:15;5.00;99.90
6146;DHT22;3104;50.348;7.620;2023-04-03T02:51:41;4.80;99.90
6146;DHT22;3104;50.348;7.620;2023-04-03T02:54:07;4.70;99.90
6146;DHT22;3104;50.348;7.620;2023-04-03T02:56:33;4.60;99.90
6146;DHT22;3104;50.348;7.620;2023-04-03T02:58:58;4.50;99.90
6146;DHT22;3104;50.348;7.620;2023-04-03T03:01:24;4.40;99.90
6146;DHT22;3104;50.348;7.620;2023-04-03T03:03:50;4.60;99.90
6146;DHT22;3104;50.348;7.620;2023-04-03T03:06:17;4.60;99.90
6146;DHT22;3104;50.348;7.620;2023-04-03T03:08:43;4.60;99.90
6146;DHT22;3104;50.348;7.620;2023-04-03T03:11:09;4.60;99.90
6146;DHT22;3104;50.348;7.620;2023-04-03T03:13:35;4.60;99.90
6146;DHT22;3104;50.348;7.620;2023-04-03T03:16:01;4.50;99.90
6146;DHT22;3104;50.348;7.620;2023-04-03T03:18:27;4.50;99.90
6146;DHT22;3104;50.348;7.620;2023-04-03T03:20:55;4.50;99.90
6146;DHT22;3104;50.348;7.620;2023-04-03T03:23:21;4.50;99.90
6146;DHT22;3104;50.348;7.620;2023-04-03T03:25:47;4.60;99.90
6146;DHT22;3104;50.348;7.620;2023-04-03T03:28:13;4.90;99.90
6146;DHT22;3104;50.348;7.620;2023-04-03T03:30:38;4.80;99.90
6146;DHT22;3104;50.348;7.620;2023-04-03T03:33:04;4.70;99.90
6146;DHT22;3104;50.348;7.620;2023-04-03T03:35:29;4.50;99.90
6146;DHT22;3104;50.348;7.620;2023-04-03T03:37:55;4.40;99.90
6146;DHT22;3104;50.348;7.620;2023-04-03T03:40:21;4.50;99.90
6146;DHT22;3104;50.348;7.620;2023-04-03T03:42:46;4.40;99.90
6146;DHT22;3104;50.348;7.620;2023-04-03T03:45:12;4.40;99.90
6146;DHT22;3104;50.348;7.620;2023-04-03T03:47:37;4.30;99.90
6146;DHT22;3104;50.348;7.620;2023-04-03T03:50:03;4.40;99.90
6146;DHT22;3104;50.348;7.620;2023-04-03T03:52:29;4.30;99.90
6146;DHT22;3104;50.348;7.620;2023-04-03T03:54:55;4.30;99.90
6146;DHT22;3104;50.348;7.620;2023-04-03T03:57:21;4.20;99.90
6146;DHT22;3104;50.348;7.620;2023-04-03T03:59:47;4.30;99.90
6146;DHT22;3104;50.348;7.620;2023-04-03T04:02:14;4.40;99.90
6146;DHT22;3104;50.348;7.620;2023-04-03T04:04:40;4.40;99.90
6146;DHT22;3104;50.348;7.620;2023-04-03T04:07:06;4.40;99.90
6146;DHT22;3104;50.348;7.620;2023-04-03T04:09:31;4.30;99.90
6146;DHT22;3104;50.348;7.620;2023-04-03T04:11:57;4.20;99.90
6146;DHT22;3104;50.348;7.620;2023-04-03T04:14:23;4.30;99.90
6146;DHT22;3104;50.348;7.620;2023-04-03T04:16:48;4.20;99.90
6146;DHT22;3104;50.348;7.620;2023-04-03T04:19:14;4.20;99.90
6146;DHT22;3104;50.348;7.620;2023-04-03T04:21:40;4.20;99.90
6146;DHT22;3104;50.348;7.620;2023-04-03T04:24:07;4.20;99.90
6146;DHT22;3104;50.348;7.620;2023-04-03T04:26:33;4.10;99.90
6146;DHT22;3104;50.348;7.620;2023-04-03T04:28:58;4.20;99.90
6146;DHT22;3104;50.348;7.620;2023-04-03T04:31:24;4.00;99.90
6146;DHT22;3104;50.348;7.620;2023-04-03T04:33:49;4.00;99.90
6146;DHT22;3104;50.348;7.620;2023-04-03T04:36:15;4.00;99.90
6146;DHT22;3104;50.348;7.620;2023-04-03T04:38:41;3.70;99.90
6146;DHT22;3104;50.348;7.620;2023-04-03T04:41:07;3.70;99.90
6146;DHT22;3104;50.348;7.620;2023-04-03T04:43:33;3.80;99.90
6146;DHT22;3104;50.348;7.620;2023-04-03T04:48:27;3.70;99.90
6146;DHT22;3104;50.348;7.620;2023-04-03T04:50:53;3.60;99.90
6146;DHT22;3104;50.348;7.620;2023-04-03T04:53:18;3.50;99.90
6146;DHT22;3104;50.348;7.620;2023-04-03T04:55:44;3.50;99.90
6146;DHT22;3104;50.348;7.620;2023-04-03T04:58:09;3.40;99.90
6146;DHT22;3104;50.348;7.620;2023-04-03T05:00:35;3.40;99.90
6146;DHT22;3104;50.348;7.620;2023-04-03T05:03:00;3.30;99.90
6146;DHT22;3104;50.348;7.620;2023-04-03T05:05:26;3.30;99.90
6146;DHT22;3104;50.348;7.620;2023-04-03T05:07:52;3.30;99.90
6146;DHT22;3104;50.348;7.620;2023-04-03T05:10:17;3.30;99.90
6146;DHT22;3104;50.348;7.620;2023-04-03T05:12:43;3.20;99.90
6146;DHT22;3104;50.348;7.620;2023-04-03T05:15:09;3.10;99.90
6146;DHT22;3104;50.348;7.620;2023-04-03T05:17:34;3.00;99.90
6146;DHT22;3104;50.348;7.620;2023-04-03T05:20:00;3.10;99.90
6146;DHT22;3104;50.348;7.620;2023-04-03T05:22:26;3.10;99.90
6146;DHT22;3104;50.348;7.620;2023-04-03T05:24:51;3.10;99.90
6146;DHT22;3104;50.348;7.620;2023-04-03T05:27:17;3.10;99.90
6146;DHT22;3104;50.348;7.620;2023-04-03T05:29:42;3.00;99.90
6146;DHT22;3104;50.348;7.620;2023-04-03T05:32:10;2.90;99.90
6146;DHT22;3104;50.348;7.620;2023-04-03T05:34:35;3.00;99.90
6146;DHT22;3104;50.348;7.620;2023-04-03T05:37:01;2.90;99.90
6146;DHT22;3104;50.348;7.620;2023-04-03T05:39:28;2.90;99.90
6146;DHT22;3104;50.348;7.620;2023-04-03T05:41:54;2.90;99.90
6146;DHT22;3104;50.348;7.620;2023-04-03T05:44:19;2.90;99.90
6146;DHT22;3104;50.348;7.620;2023-04-03T05:46:45;2.90;99.90
6146;DHT22;3104;50.348;7.620;2023-04-03T05:49:10;2.90;99.90
6146;DHT22;3104;50.348;7.620;2023-04-03T05:51:37;2.80;99.90
6146;DHT22;3104;50.348;7.620;2023-04-03T05:54:10;2.80;99.90
6146;DHT22;3104;50.348;7.620;2023-04-03T05:56:37;2.80;99.90
6146;DHT22;3104;50.348;7.620;2023-04-03T05:59:03;2.90;99.90
6146;DHT22;3104;50.348;7.620;2023-04-03T06:01:29;2.90;99.90
6146;DHT22;3104;50.348;7.620;2023-04-03T06:03:54;2.90;99.90
6146;DHT22;3104;50.348;7.620;2023-04-03T06:06:20;2.90;99.90
6146;DHT22;3104;50.348;7.620;2023-04-03T06:08:47;2.90;99.90
6146;DHT22;3104;50.348;7.620;2023-04-03T06:11:12;3.00;99.90
6146;DHT22;3104;50.348;7.620;2023-04-03T06:13:38;3.00;99.90
6146;DHT22;3104;50.348;7.620;2023-04-03T06:16:05;3.00;99.90
6146;DHT22;3104;50.348;7.620;2023-04-03T06:18:30;3.00;99.90
6146;DHT22;3104;50.348;7.620;2023-04-03T06:20:57;3.10;99.90
6146;DHT22;3104;50.348;7.620;2023-04-03T06:23:23;3.10;99.90
6146;DHT22;3104;50.348;7.620;2023-04-03T06:25:49;3.10;99.90
6146;DHT22;3104;50.348;7.620;2023-04-03T06:28:15;3.10;99.90
6146;DHT22;3104;50.348;7.620;2023-04-03T06:30:40;3.20;99.90
6146;DHT22;3104;50.348;7.620;2023-04-03T06:33:06;3.20;99.90
6146;DHT22;3104;50.348;7.620;2023-04-03T06:35:31;3.20;99.90
6146;DHT22;3104;50.348;7.620;2023-04-03T06:38:00;3.30;99.90
6146;DHT22;3104;50.348;7.620;2023-04-03T06:40:25;3.20;99.90
6146;DHT22;3104;50.348;7.620;2023-04-03T06:42:51;3.30;99.90
6146;DHT22;3104;50.348;7.620;2023-04-03T06:45:17;3.30;99.90
6146;DHT22;3104;50.348;7.620;2023-04-03T06:47:43;3.40;99.90
6146;DHT22;3104;50.348;7.620;2023-04-03T06:50:10;3.40;99.90
6146;DHT22;3104;50.348;7.620;2023-04-03T06:52:37;3.50;99.90
6146;DHT22;3104;50.348;7.620;2023-04-03T06:55:02;3.50;99.90
6146;DHT22;3104;50.348;7.620;2023-04-03T06:57:29;3.50;99.90
6146;DHT22;3104;50.348;7.620;2023-04-03T06:59:54;3.60;99.90
6146;DHT22;3104;50.348;7.620;2023-04-03T07:02:20;3.70;99.90
6146;DHT22;3104;50.348;7.620;2023-04-03T07:04:47;3.70;99.90
6146;DHT22;3104;50.348;7.620;2023-04-03T07:07:12;3.70;99.90
6146;DHT22;3104;50.348;7.620;2023-04-03T07:09:38;3.70;99.90
6146;DHT22;3104;50.348;7.620;2023-04-03T07:12:04;3.70;99.90
6146;DHT22;3104;50.348;7.620;2023-04-03T07:14:29;3.70;99.90
6146;DHT22;3104;50.348;7.620;2023-04-03T07:16:55;3.70;99.90
6146;DHT22;3104;50.348;7.620;2023-04-03T07:19:20;3.90;99.90
6146;DHT22;3104;50.348;7.620;2023-04-03T07:21:47;4.00;99.90
6146;DHT22;3104;50.348;7.620;2023-04-03T07:24:12;4.00;99.90
6146;DHT22;3104;50.348;7.620;2023-04-03T07:26:38;4.00;99.90
6146;DHT22;3104;50.348;7.620;2023-04-03T07:29:04;4.20;99.90
6146;DHT22;3104;50.348;7.620;2023-04-03T07:31:29;4.30;99.90
6146;DHT22;3104;50.348;7.620;2023-04-03T07:33:55;4.20;99.90
6146;DHT22;3104;50.348;7.620;2023-04-03T07:36:22;4.30;99.90
6146;DHT22;3104;50.348;7.620;2023-04-03T07:38:48;4.30;99.90
6146;DHT22;3104;50.348;7.620;2023-04-03T07:41:16;4.30;99.90
6146;DHT22;3104;50.348;7.620;2023-04-03T07:43:43;4.20;99.90
6146;DHT22;3104;50.348;7.620;2023-04-03T07:46:09;4.30;99.90
6146;DHT22;3104;50.348;7.620;2023-04-03T07:48:34;4.40;99.90
6146;DHT22;3104;50.348;7.620;2023-04-03T07:51:01;4.40;99.90
6146;DHT22;3104;50.348;7.620;2023-04-03T07:53:27;4.40;99.90
6146;DHT22;3104;50.348;7.620;2023-04-03T07:55:53;4.40;99.90
6146;DHT22;3104;50.348;7.620;2023-04-03T07:58:21;4.40;99.90
6146;DHT22;3104;50.348;7.620;2023-04-03T08:00:47;4.40;99.90
6146;DHT22;3104;50.348;7.620;2023-04-03T08:03:13;4.50;99.90
6146;DHT22;3104;50.348;7.620;2023-04-03T08:05:41;4.60;99.90
6146;DHT22;3104;50.348;7.620;2023-04-03T08:08:08;4.60;99.90
6146;DHT22;3104;50.348;7.620;2023-04-03T08:10:34;4.80;99.90
6146;DHT22;3104;50.348;7.620;2023-04-03T08:13:01;4.80;99.90
6146;DHT22;3104;50.348;7.620;2023-04-03T08:15:26;4.80;99.90
6146;DHT22;3104;50.348;7.620;2023-04-03T08:17:52;4.80;99.90
6146;DHT22;3104;50.348;7.620;2023-04-03T08:20:18;4.80;99.90
6146;DHT22;3104;50.348;7.620;2023-04-03T08:22:44;4.80;99.90
6146;DHT22;3104;50.348;7.620;2023-04-03T08:25:10;4.80;99.90
6146;DHT22;3104;50.348;7.620;2023-04-03T08:27:35;5.20;99.90
6146;DHT22;3104;50.348;7.620;2023-04-03T08:30:01;5.20;99.90
6146;DHT22;3104;50.348;7.620;2023-04-03T08:32:27;5.10;97.10
6146;DHT22;3104;50.348;7.620;2023-04-03T08:34:53;5.20;99.90
6146;DHT22;3104;50.348;7.620;2023-04-03T08:37:18;5.20;99.90
6146;DHT22;3104;50.348;7.620;2023-04-03T08:39:44;5.00;99.90
6146;DHT22;3104;50.348;7.620;2023-04-03T08:42:41;5.10;99.90
6146;DHT22;3104;50.348;7.620;2023-04-03T08:45:13;5.20;99.90
6146;DHT22;3104;50.348;7.620;2023-04-03T08:48:35;5.00;99.90
6146;DHT22;3104;50.348;7.620;2023-04-03T08:50:40;4.90;99.90
6146;DHT22;3104;50.348;7.620;2023-04-03T08:53:17;4.60;99.90
6146;DHT22;3104;50.348;7.620;2023-04-03T08:55:46;4.60;99.90
6146;DHT22;3104;50.348;7.620;2023-04-03T08:58:16;4.80;99.90
6146;DHT22;3104;50.348;7.620;2023-04-03T09:01:02;4.80;99.90
6146;DHT22;3104;50.348;7.620;2023-04-03T09:03:34;4.60;99.90
6146;DHT22;3104;50.348;7.620;2023-04-03T09:06:14;4.60;99.90
6146;DHT22;3104;50.348;7.620;2023-04-03T09:09:33;4.80;99.90
6146;DHT22;3104;50.348;7.620;2023-04-03T09:11:54;4.90;99.90
6146;DHT22;3104;50.348;7.620;2023-04-03T09:14:33;5.20;99.90
6146;DHT22;3104;50.348;7.620;2023-04-03T09:19:58;5.40;97.10
6146;DHT22;3104;50.348;7.620;2023-04-03T09:22:32;5.10;99.90
6146;DHT22;3104;50.348;7.620;2023-04-03T09:27:33;4.90;99.90
6146;DHT22;3104;50.348;7.620;2023-04-03T09:29:58;5.10;99.90
6146;DHT22;3104;50.348;7.620;2023-04-03T09:32:33;5.40;99.90
6146;DHT22;3104;50.348;7.620;2023-04-03T09:35:47;5.30;99.90
6146;DHT22;3104;50.348;7.620;2023-04-03T09:37:50;5.40;99.90
6146;DHT22;3104;50.348;7.620;2023-04-03T09:42:53;5.00;99.90
6146;DHT22;3104;50.348;7.620;2023-04-03T09:45:25;5.10;99.90
6146;DHT22;3104;50.348;7.620;2023-04-03T09:48:06;5.30;98.10
6146;DHT22;3104;50.348;7.620;2023-04-03T09:50:33;6.40;97.60
6146;DHT22;3104;50.348;7.620;2023-04-03T09:53:05;7.10;76.30
6146;DHT22;3104;50.348;7.620;2023-04-03T09:55:32;7.70;66.60
6146;DHT22;3104;50.348;7.620;2023-04-03T09:58:02;7.30;66.90
6146;DHT22;3104;50.348;7.620;2023-04-03T10:00:37;7.60;66.30
6146;DHT22;3104;50.348;7.620;2023-04-03T10:03:04;7.80;55.80
6146;DHT22;3104;50.348;7.620;2023-04-03T10:05:38;7.50;53.30
6146;DHT22;3104;50.348;7.620;2023-04-03T10:10:45;8.10;46.90
6146;DHT22;3104;50.348;7.620;2023-04-03T10:13:19;8.70;39.10
6146;DHT22;3104;50.348;7.620;2023-04-03T10:15:51;9.30;39.80
6146;DHT22;3104;50.348;7.620;2023-04-03T10:18:37;9.10;39.00
6146;DHT22;3104;50.348;7.620;2023-04-03T10:21:10;8.50;38.70
6146;DHT22;3104;50.348;7.620;2023-04-03T10:26:39;7.40;48.70
6146;DHT22;3104;50.348;7.620;2023-04-03T10:31:52;6.50;51.50
6146;DHT22;3104;50.348;7.620;2023-04-03T10:34:37;6.90;50.80
6146;DHT22;3104;50.348;7.620;2023-04-03T10:37:22;7.50;45.50
6146;DHT22;3104;50.348;7.620;2023-04-03T10:42:47;6.90;54.00
6146;DHT22;3104;50.348;7.620;2023-04-03T10:48:07;7.00;47.10
6146;DHT22;3104;50.348;7.620;2023-04-03T10:50:38;8.00;36.40
6146;DHT22;3104;50.348;7.620;2023-04-03T10:58:52;7.30;46.00
6146;DHT22;3104;50.348;7.620;2023-04-03T11:01:26;7.50;49.20
6146;DHT22;3104;50.348;7.620;2023-04-03T11:03:57;7.00;48.10
6146;DHT22;3104;50.348;7.620;2023-04-03T11:06:34;6.80;48.30
6146;DHT22;3104;50.348;7.620;2023-04-03T11:09:20;6.60;51.40
6146;DHT22;3104;50.348;7.620;2023-04-03T11:11:49;6.70;48.80
6146;DHT22;3104;50.348;7.620;2023-04-03T11:14:28;6.80;49.20
6146;DHT22;3104;50.348;7.620;2023-04-03T11:20:01;7.70;36.60
6146;DHT22;3104;50.348;7.620;2023-04-03T11:22:32;8.80;29.50
6146;DHT22;3104;50.348;7.620;2023-04-03T11:30:18;7.20;32.60
6146;DHT22;3104;50.348;7.620;2023-04-03T11:32:57;6.60;40.80
6146;DHT22;3104;50.348;7.620;2023-04-03T11:35:26;7.30;37.50
6146;DHT22;3104;50.348;7.620;2023-04-03T11:37:52;7.90;34.30
6146;DHT22;3104;50.348;7.620;2023-04-03T11:40:25;8.10;27.50
6146;DHT22;3104;50.348;7.620;2023-04-03T11:45:31;7.70;27.30
6146;DHT22;3104;50.348;7.620;2023-04-03T12:01:05;8.70;14.40
6146;DHT22;3104;50.348;7.620;2023-04-03T12:03:56;8.70;17.10
6146;DHT22;3104;50.348;7.620;2023-04-03T12:08:46;9.50;14.10
6146;DHT22;3104;50.348;7.620;2023-04-03T12:13:39;9.80;14.10
6146;DHT22;3104;50.348;7.620;2023-04-03T12:16:07;10.50;15.20
6146;DHT22;3104;50.348;7.620;2023-04-03T12:43:04;9.00;1.00
6146;DHT22;3104;50.348;7.620;2023-04-03T12:45:41;8.90;1.00
6146;DHT22;3104;50.348;7.620;2023-04-03T12:48:15;9.10;1.30
6146;DHT22;3104;50.348;7.620;2023-04-03T12:50:41;8.90;2.50
6146;DHT22;3104;50.348;7.620;2023-04-03T12:53:18;9.20;1.90
6146;DHT22;3104;50.348;7.620;2023-04-03T12:55:44;9.10;1.00
6146;DHT22;3104;50.348;7.620;2023-04-03T12:58:27;9.00;2.70
6146;DHT22;3104;50.348;7.620;2023-04-03T13:01:04;9.10;1.00
6146;DHT22;3104;50.348;7.620;2023-04-03T13:03:34;8.80;1.00
6146;DHT22;3104;50.348;7.620;2023-04-03T13:06:04;9.70;1.00
6146;DHT22;3104;50.348;7.620;2023-04-03T13:08:30;9.20;1.00
6146;DHT22;3104;50.348;7.620;2023-04-03T13:10:58;9.00;1.00
6146;DHT22;3104;50.348;7.620;2023-04-03T13:13:25;9.10;1.40
6146;DHT22;3104;50.348;7.620;2023-04-03T13:15:53;9.10;1.00
6146;DHT22;3104;50.348;7.620;2023-04-03T13:18:34;9.00;1.00
6146;DHT22;3104;50.348;7.620;2023-04-03T13:21:21;9.10;1.00
6146;DHT22;3104;50.348;7.620;2023-04-03T13:23:51;9.30;1.00
6146;DHT22;3104;50.348;7.620;2023-04-03T13:26:18;8.90;1.00
6146;DHT22;3104;50.348;7.620;2023-04-03T13:28:46;9.40;1.00
6146;DHT22;3104;50.348;7.620;2023-04-03T13:33:51;8.90;1.00
6146;DHT22;3104;50.348;7.620;2023-04-03T13:36:21;9.80;1.00
6146;DHT22;3104;50.348;7.620;2023-04-03T13:39:20;10.40;1.00
6146;DHT22;3104;50.348;7.620;2023-04-03T13:41:52;10.10;1.00
6146;DHT22;3104;50.348;7.620;2023-04-03T13:46:57;9.40;1.00
6146;DHT22;3104;50.348;7.620;2023-04-03T13:49:35;9.00;1.00
6146;DHT22;3104;50.348;7.620;2023-04-03T13:54:48;9.20;1.00
6146;DHT22;3104;50.348;7.620;2023-04-03T13:57:17;9.00;1.00
6146;DHT22;3104;50.348;7.620;2023-04-03T13:59:43;8.90;1.00
6146;DHT22;3104;50.348;7.620;2023-04-03T14:07:08;8.90;1.00
6146;DHT22;3104;50.348;7.620;2023-04-03T14:09:34;9.00;1.00
6146;DHT22;3104;50.348;7.620;2023-04-03T14:12:07;8.80;1.00
6146;DHT22;3104;50.348;7.620;2023-04-03T14:14:36;8.80;1.00
6146;DHT22;3104;50.348;7.620;2023-04-03T14:17:14;9.00;1.00
6146;DHT22;3104;50.348;7.620;2023-04-03T14:19:40;9.30;1.00
6146;DHT22;3104;50.348;7.620;2023-04-03T14:22:18;8.90;1.00
6146;DHT22;3104;50.348;7.620;2023-04-03T14:24:44;8.60;1.00
6146;DHT22;3104;50.348;7.620;2023-04-03T14:27:29;9.00;1.00
6146;DHT22;3104;50.348;7.620;2023-04-03T14:29:57;9.20;1.00
6146;DHT22;3104;50.348;7.620;2023-04-03T14:32:24;9.40;1.50
6146;DHT22;3104;50.348;7.620;2023-04-03T14:34:51;9.20;3.30
6146;DHT22;3104;50.348;7.620;2023-04-03T14:37:23;9.30;1.00
6146;DHT22;3104;50.348;7.620;2023-04-03T14:39:51;9.00;1.10
6146;DHT22;3104;50.348;7.620;2023-04-03T14:42:20;9.40;2.00
6146;DHT22;3104;50.348;7.620;2023-04-03T14:44:46;8.90;1.00
6146;DHT22;3104;50.348;7.620;2023-04-03T14:47:16;8.50;1.00
6146;DHT22;3104;50.348;7.620;2023-04-03T14:49:42;8.80;1.00
6146;DHT22;3104;50.348;7.620;2023-04-03T14:54:45;9.00;1.00
6146;DHT22;3104;50.348;7.620;2023-04-03T14:57:13;9.00;1.00
6146;DHT22;3104;50.348;7.620;2023-04-03T14:59:39;9.10;1.00
6146;DHT22;3104;50.348;7.620;2023-04-03T15:04:53;9.20;1.00
6146;DHT22;3104;50.348;7.620;2023-04-03T15:07:19;9.20;1.00
6146;DHT22;3104;50.348;7.620;2023-04-03T15:09:45;9.10;1.00
6146;DHT22;3104;50.348;7.620;2023-04-03T15:12:10;9.10;1.00
6146;DHT22;3104;50.348;7.620;2023-04-03T15:14:36;9.60;1.00
6146;DHT22;3104;50.348;7.620;2023-04-03T15:17:03;10.00;1.00
6146;DHT22;3104;50.348;7.620;2023-04-03T15:19:35;9.80;1.00
6146;DHT22;3104;50.348;7.620;2023-04-03T15:22:01;9.70;1.00
6146;DHT22;3104;50.348;7.620;2023-04-03T15:24:27;9.60;1.00
6146;DHT22;3104;50.348;7.620;2023-04-03T15:26:52;9.30;1.00
6146;DHT22;3104;50.348;7.620;2023-04-03T15:29:18;9.40;1.00
6146;DHT22;3104;50.348;7.620;2023-04-03T15:31:43;9.30;1.00
6146;DHT22;3104;50.348;7.620;2023-04-03T15:34:09;9.60;1.00
6146;DHT22;3104;50.348;7.620;2023-04-03T15:36:35;9.60;1.00
6146;DHT22;3104;50.348;7.620;2023-04-03T15:39:01;9.60;1.00
6146;DHT22;3104;50.348;7.620;2023-04-03T15:41:26;9.50;1.00
6146;DHT22;3104;50.348;7.620;2023-04-03T15:43:52;9.10;1.00
6146;DHT22;3104;50.348;7.620;2023-04-03T15:46:17;9.40;1.00
6146;DHT22;3104;50.348;7.620;2023-04-03T15:48:43;9.50;1.00
6146;DHT22;3104;50.348;7.620;2023-04-03T15:51:10;9.50;1.00
6146;DHT22;3104;50.348;7.620;2023-04-03T15:53:35;9.00;1.00
6146;DHT22;3104;50.348;7.620;2023-04-03T15:56:01;9.40;1.00
6146;DHT22;3104;50.348;7.620;2023-04-03T15:58:26;9.30;1.00
6146;DHT22;3104;50.348;7.620;2023-04-03T16:00:52;8.90;1.00
6146;DHT22;3104;50.348;7.620;2023-04-03T16:03:20;9.20;1.00
6146;DHT22;3104;50.348;7.620;2023-04-03T16:05:46;9.40;1.00
6146;DHT22;3104;50.348;7.620;2023-04-03T16:08:14;9.70;1.00
6146;DHT22;3104;50.348;7.620;2023-04-03T16:10:39;9.40;1.00
6146;DHT22;3104;50.348;7.620;2023-04-03T16:13:05;9.40;1.00
6146;DHT22;3104;50.348;7.620;2023-04-03T16:15:32;9.10;1.00
6146;DHT22;3104;50.348;7.620;2023-04-03T16:17:59;9.10;1.00
6146;DHT22;3104;50.348;7.620;2023-04-03T16:20:26;8.90;1.00
6146;DHT22;3104;50.348;7.620;2023-04-03T16:22:52;8.90;1.00
6146;DHT22;3104;50.348;7.620;2023-04-03T16:25:18;9.10;1.00
6146;DHT22;3104;50.348;7.620;2023-04-03T16:27:43;8.80;1.00
6146;DHT22;3104;50.348;7.620;2023-04-03T16:30:10;9.00;1.00
6146;DHT22;3104;50.348;7.620;2023-04-03T16:32:37;8.80;1.00
6146;DHT22;3104;50.348;7.620;2023-04-03T16:35:04;8.60;1.00
6146;DHT22;3104;50.348;7.620;2023-04-03T16:37:30;8.50;1.00
6146;DHT22;3104;50.348;7.620;2023-04-03T16:39:56;8.50;1.00
6146;DHT22;3104;50.348;7.620;2023-04-03T16:42:23;8.40;1.00
6146;DHT22;3104;50.348;7.620;2023-04-03T16:44:49;8.50;1.00
6146;DHT22;3104;50.348;7.620;2023-04-03T16:47:15;8.40;1.00
6146;DHT22;3104;50.348;7.620;2023-04-03T16:49:44;8.60;1.00
6146;DHT22;3104;50.348;7.620;2023-04-03T16:52:10;8.70;1.00
6146;DHT22;3104;50.348;7.620;2023-04-03T16:54:36;8.50;1.00
6146;DHT22;3104;50.348;7.620;2023-04-03T16:57:02;8.30;1.00
6146;DHT22;3104;50.348;7.620;2023-04-03T16:59:27;8.60;1.00
6146;DHT22;3104;50.348;7.620;2023-04-03T17:01:53;8.60;1.00
6146;DHT22;3104;50.348;7.620;2023-04-03T17:04:18;8.50;1.00
6146;DHT22;3104;50.348;7.620;2023-04-03T17:06:44;8.50;1.00
6146;DHT22;3104;50.348;7.620;2023-04-03T17:09:10;8.40;1.00
6146;DHT22;3104;50.348;7.620;2023-04-03T17:11:36;8.30;1.00
6146;DHT22;3104;50.348;7.620;2023-04-03T17:14:01;8.00;1.00
6146;DHT22;3104;50.348;7.620;2023-04-03T17:16:28;7.90;1.00
6146;DHT22;3104;50.348;7.620;2023-04-03T17:18:54;8.00;1.00
6146;DHT22;3104;50.348;7.620;2023-04-03T17:21:21;7.90;1.00
6146;DHT22;3104;50.348;7.620;2023-04-03T17:23:50;8.00;1.00
6146;DHT22;3104;50.348;7.620;2023-04-03T17:26:18;8.00;1.00
6146;DHT22;3104;50.348;7.620;2023-04-03T17:28:43;7.80;1.00
6146;DHT22;3104;50.348;7.620;2023-04-03T17:31:09;7.70;1.00
6146;DHT22;3104;50.348;7.620;2023-04-03T17:33:34;7.70;1.00
6146;DHT22;3104;50.348;7.620;2023-04-03T17:36:02;7.70;1.00
6146;DHT22;3104;50.348;7.620;2023-04-03T17:38:29;7.70;1.00
6146;DHT22;3104;50.348;7.620;2023-04-03T17:41:03;7.40;1.00
6146;DHT22;3104;50.348;7.620;2023-04-03T17:43:29;7.30;1.00
6146;DHT22;3104;50.348;7.620;2023-04-03T17:46:00;7.30;1.20
6146;DHT22;3104;50.348;7.620;2023-04-03T17:48:32;7.30;1.60
6146;DHT22;3104;50.348;7.620;2023-04-03T17:51:02;7.20;1.80
6146;DHT22;3104;50.348;7.620;2023-04-03T17:53:28;7.10;3.10
6146;DHT22;3104;50.348;7.620;2023-04-03T17:55:53;7.20;3.80
6146;DHT22;3104;50.348;7.620;2023-04-03T17:58:19;7.10;4.50
6146;DHT22;3104;50.348;7.620;2023-04-03T18:00:44;7.00;3.80
6146;DHT22;3104;50.348;7.620;2023-04-03T18:03:10;6.90;4.90
6146;DHT22;3104;50.348;7.620;2023-04-03T18:05:36;6.90;5.10
6146;DHT22;3104;50.348;7.620;2023-04-03T18:08:02;7.10;6.50
6146;DHT22;3104;50.348;7.620;2023-04-03T18:10:28;6.80;6.60
6146;DHT22;3104;50.348;7.620;2023-04-03T18:12:55;6.80;6.90
6146;DHT22;3104;50.348;7.620;2023-04-03T18:15:23;6.70;7.80
6146;DHT22;3104;50.348;7.620;2023-04-03T18:17:49;6.60;8.80
6146;DHT22;3104;50.348;7.620;2023-04-03T18:20:16;6.50;9.80